createdAt,value
2019-03-18T00:01:16.461Z,100853.52
2019-03-18T00:03:47.161Z,100851.87
2019-03-18T00:06:25.636Z,100855.80
2019-03-18T00:08:56.247Z,100861.56
2019-03-18T00:11:27.091Z,100855.83
2019-03-18T00:14:35.360Z,100854.09
2019-03-18T00:17:13.861Z,100852.87
2019-03-18T00:19:50.457Z,100856.58
2019-03-18T00:22:21.109Z,100861.61
2019-03-18T00:24:51.818Z,100867.06
2019-03-18T00:27:29.916Z,100871.25
2019-03-18T00:30:00.498Z,100874.88
2019-03-18T00:32:31.189Z,100877.72
2019-03-18T00:35:11.866Z,100875.31
2019-03-18T00:37:43.548Z,100881.36
2019-03-18T00:40:14.276Z,100879.44
2019-03-18T00:42:45.054Z,100883.90
2019-03-18T00:45:15.998Z,100882.27
2019-03-18T00:47:46.707Z,100890.78
2019-03-18T00:50:17.473Z,100892.53
2019-03-18T00:52:48.338Z,100892.78
2019-03-18T00:55:18.971Z,100893.30
2019-03-18T00:57:49.688Z,100894.52
2019-03-18T01:00:27.195Z,100887.19
2019-03-18T01:03:07.189Z,100890.52
2019-03-18T01:05:39.821Z,100885.13
2019-03-18T01:08:14.946Z,100882.81
2019-03-18T01:10:45.615Z,100890.96
2019-03-18T01:13:16.279Z,100890.19
2019-03-18T01:15:46.862Z,100894.20
2019-03-18T01:18:27.283Z,100894.78
2019-03-18T01:21:01.948Z,100894.63
2019-03-18T01:23:32.638Z,100896.23
2019-03-18T01:26:03.300Z,100893.70
2019-03-18T01:28:33.974Z,100900.10
2019-03-18T01:31:04.635Z,100895.41
2019-03-18T01:33:35.327Z,100890.89
2019-03-18T01:36:06.073Z,100895.86
2019-03-18T01:38:41.109Z,100901.75
2019-03-18T01:41:11.754Z,100904.34
2019-03-18T01:43:42.339Z,100902.95
2019-03-18T01:46:13.019Z,100905.39
2019-03-18T01:48:43.589Z,100904.80
2019-03-18T01:51:22.534Z,100906.21
2019-03-18T01:53:54.206Z,100901.45
2019-03-18T01:56:24.795Z,100902.28
2019-03-18T01:58:55.485Z,100905.00
2019-03-18T02:01:26.163Z,100902.64
2019-03-18T02:03:56.873Z,100901.93
2019-03-18T02:06:52.477Z,100895.46
2019-03-18T02:09:23.018Z,100900.18
2019-03-18T02:11:53.696Z,100896.62
2019-03-18T02:14:34.416Z,100897.64
2019-03-18T02:17:05.133Z,100903.54
2019-03-18T02:19:41.315Z,100896.95
2019-03-18T02:22:22.982Z,100893.51
2019-03-18T02:24:53.596Z,100896.44
2019-03-18T02:27:41.904Z,100901.78
2019-03-18T02:30:33.505Z,100908.62
2019-03-18T02:33:04.222Z,100909.63
2019-03-18T02:35:34.787Z,100914.78
2019-03-18T02:38:05.388Z,100910.59
2019-03-18T02:40:54.643Z,100913.31
2019-03-18T02:43:25.378Z,100911.28
2019-03-18T02:46:09.344Z,100910.12
2019-03-18T02:48:28.387Z,100920.52
2019-03-18T02:50:58.982Z,100935.58
2019-03-18T02:53:29.668Z,100948.13
2019-03-18T02:56:00.229Z,100954.61
2019-03-18T02:58:42.799Z,100957.79
2019-03-18T03:01:29.683Z,100970.95
2019-03-18T03:04:01.384Z,100979.05
2019-03-18T03:06:31.976Z,100972.90
2019-03-18T03:09:02.634Z,100975.77
2019-03-18T03:11:34.506Z,100972.64
2019-03-18T03:14:25.541Z,100976.46
2019-03-18T03:17:08.497Z,100975.45
2019-03-18T03:19:39.270Z,100968.87
2019-03-18T03:22:16.205Z,100973.55
2019-03-18T03:24:46.800Z,100978.75
2019-03-18T03:27:43.477Z,100978.76
2019-03-18T03:30:14.376Z,100986.74
2019-03-18T03:32:52.169Z,100985.41
2019-03-18T03:35:23.907Z,100980.47
2019-03-18T03:37:54.637Z,100975.75
2019-03-18T03:40:25.321Z,100980.47
2019-03-18T03:42:56.068Z,100979.87
2019-03-18T03:45:33.683Z,100978.48
2019-03-18T03:48:04.469Z,100981.16
2019-03-18T03:50:34.988Z,100986.45
2019-03-18T03:53:05.558Z,100989.55
2019-03-18T03:55:36.229Z,100992.03
2019-03-18T03:58:06.784Z,100997.27
2019-03-18T04:00:37.467Z,100995.77
2019-03-18T04:03:08.166Z,100999.67
2019-03-18T04:05:38.667Z,101011.18
2019-03-18T04:08:09.550Z,101012.64
2019-03-18T04:10:47.504Z,101017.35
2019-03-18T04:13:22.957Z,101015.51
2019-03-18T04:15:53.652Z,101022.38
2019-03-18T04:18:24.363Z,101020.64
2019-03-18T04:21:07.031Z,101023.84
2019-03-18T04:23:37.634Z,101022.19
2019-03-18T04:26:08.293Z,101023.33
2019-03-18T04:28:38.930Z,101030.58
2019-03-18T04:31:09.618Z,101026.20
2019-03-18T04:33:46.342Z,101035.67
2019-03-18T04:36:17.064Z,101036.86
2019-03-18T04:39:14.220Z,101036.80
2019-03-18T04:42:17.962Z,101040.67
2019-03-18T04:44:50.586Z,101045.34
2019-03-18T04:47:22.275Z,101047.63
2019-03-18T04:49:52.808Z,101048.19
2019-03-18T04:52:41.860Z,101048.58
2019-03-18T04:55:12.468Z,101057.77
2019-03-18T04:57:43.151Z,101068.41
2019-03-18T05:00:14.901Z,101069.47
2019-03-18T05:02:49.241Z,101069.14
2019-03-18T05:05:23.342Z,101071.09
2019-03-18T05:07:54.397Z,101078.96
2019-03-18T05:10:28.655Z,101081.76
2019-03-18T05:12:59.419Z,101083.23
2019-03-18T05:15:30.097Z,101085.94
2019-03-18T05:18:00.740Z,101090.72
2019-03-18T05:20:31.344Z,101102.11
2019-03-18T05:23:01.957Z,101103.63
2019-03-18T05:25:32.730Z,101128.83
2019-03-18T05:28:03.474Z,101131.40
2019-03-18T05:30:37.815Z,101137.55
2019-03-18T05:33:08.512Z,101130.47
2019-03-18T05:35:39.295Z,101131.22
2019-03-18T05:38:11.011Z,101133.66
2019-03-18T05:41:00.238Z,101147.42
2019-03-18T05:43:36.353Z,101152.47
2019-03-18T05:46:10.235Z,101151.52
2019-03-18T05:48:40.929Z,101150.38
2019-03-18T05:51:12.634Z,101154.16
2019-03-18T05:53:43.291Z,101160.80
2019-03-18T05:56:13.924Z,101167.13
2019-03-18T05:58:44.624Z,101168.43
2019-03-18T06:01:24.715Z,101176.67
2019-03-18T06:04:03.388Z,101169.22
2019-03-18T06:06:39.188Z,101170.50
2019-03-18T06:09:09.879Z,101173.77
2019-03-18T06:11:43.750Z,101174.31
2019-03-18T06:14:35.569Z,101175.16
2019-03-18T06:17:06.167Z,101187.69
2019-03-18T06:19:36.792Z,101189.94
2019-03-18T06:22:13.395Z,101194.52
2019-03-18T06:24:44.134Z,101202.03
2019-03-18T06:27:14.775Z,101207.64
2019-03-18T06:29:48.423Z,101209.08
2019-03-18T06:32:19.120Z,101216.42
2019-03-18T06:34:50.715Z,101211.11
2019-03-18T06:37:21.469Z,101219.44
2019-03-18T06:39:57.248Z,101216.94
2019-03-18T06:42:27.835Z,101216.67
2019-03-18T06:45:10.277Z,101245.38
2019-03-18T06:47:40.910Z,101236.17
2019-03-18T06:50:12.642Z,101236.70
2019-03-18T06:52:43.312Z,101233.00
2019-03-18T06:55:13.943Z,101239.20
2019-03-18T06:57:44.642Z,101235.80
2019-03-18T07:00:15.340Z,101237.39
2019-03-18T07:02:46.056Z,101238.11
2019-03-18T07:05:16.768Z,101239.73
2019-03-18T07:07:58.935Z,101249.16
2019-03-18T07:10:29.669Z,101254.20
2019-03-18T07:13:00.340Z,101256.36
2019-03-18T07:15:30.861Z,101265.67
2019-03-18T07:18:01.477Z,101257.50
2019-03-18T07:20:32.145Z,101258.87
2019-03-18T07:23:04.794Z,101260.06
2019-03-18T07:25:35.423Z,101262.67
2019-03-18T07:28:06.088Z,101264.20
2019-03-18T07:30:36.757Z,101263.52
2019-03-18T07:33:07.441Z,101272.78
2019-03-18T07:35:38.117Z,101274.64
2019-03-18T07:38:08.824Z,101281.13
2019-03-18T07:40:39.559Z,101287.83
2019-03-18T07:43:14.147Z,101289.02
2019-03-18T07:45:44.755Z,101300.56
2019-03-18T07:48:15.364Z,101301.72
2019-03-18T07:50:46.015Z,101309.89
2019-03-18T07:53:18.262Z,101312.75
2019-03-18T07:56:15.595Z,101323.31
2019-03-18T07:58:46.204Z,101323.44
2019-03-18T08:01:16.810Z,101332.41
2019-03-18T08:03:47.492Z,101331.72
2019-03-18T08:06:36.529Z,101330.09
2019-03-18T08:09:09.011Z,101337.12
2019-03-18T08:11:39.711Z,101359.39
2019-03-18T08:14:10.293Z,101351.90
2019-03-18T08:16:41.146Z,101356.13
2019-03-18T08:19:16.632Z,101360.36
2019-03-18T08:21:55.084Z,101364.56
2019-03-18T08:24:25.681Z,101367.42
2019-03-18T08:26:56.391Z,101370.72
2019-03-18T08:29:33.440Z,101374.08
2019-03-18T08:32:04.120Z,101376.89
2019-03-18T08:34:34.745Z,101381.73
2019-03-18T08:37:09.302Z,101389.22
2019-03-18T08:39:39.987Z,101390.02
2019-03-18T08:42:11.717Z,101394.04
2019-03-18T08:44:50.298Z,101393.06
2019-03-18T08:47:26.794Z,101397.84
2019-03-18T08:50:07.796Z,101398.92
2019-03-18T08:52:43.845Z,101401.02
2019-03-18T08:55:23.849Z,101406.80
2019-03-18T08:57:54.537Z,101413.28
2019-03-18T09:00:43.860Z,101409.30
2019-03-18T09:03:44.737Z,101419.19
2019-03-18T09:06:16.475Z,101419.48
2019-03-18T09:08:47.085Z,101422.94
2019-03-18T09:11:17.680Z,101424.99
2019-03-18T09:13:48.352Z,101422.80
2019-03-18T09:16:18.933Z,101424.21
2019-03-18T09:18:49.589Z,101428.53
2019-03-18T09:21:20.241Z,101441.87
2019-03-18T09:24:01.123Z,101436.22
2019-03-18T09:26:31.832Z,101429.56
2019-03-18T09:29:02.556Z,101442.04
2019-03-18T09:31:43.157Z,101442.64
2019-03-18T09:34:42.409Z,101437.79
2019-03-18T09:37:12.985Z,101437.37
2019-03-18T09:39:43.696Z,101443.64
2019-03-18T09:45:20.214Z,101440.91
2019-03-18T09:48:08.828Z,101439.06
2019-03-18T09:50:56.863Z,101436.87
2019-03-18T09:53:29.439Z,101446.68
2019-03-18T09:56:08.252Z,101449.19
2019-03-18T09:58:44.799Z,101448.71
2019-03-18T10:01:50.844Z,101452.06
2019-03-18T10:04:21.504Z,101459.59
2019-03-18T10:06:55.468Z,101458.84
2019-03-18T10:09:31.344Z,101459.27
2019-03-18T10:12:01.959Z,101464.04
2019-03-18T10:14:41.969Z,101468.78
2019-03-18T10:17:18.470Z,101465.93
2019-03-18T10:19:49.096Z,101477.56
2019-03-18T10:22:32.803Z,101477.06
2019-03-18T10:25:04.824Z,101475.56
2019-03-18T10:27:37.746Z,101482.20
2019-03-18T10:30:08.112Z,101493.55
2019-03-18T10:32:44.890Z,101499.91
2019-03-18T10:35:15.616Z,101500.84
2019-03-18T10:37:46.182Z,101495.59
2019-03-18T10:40:16.785Z,101501.80
2019-03-18T10:42:47.342Z,101506.28
2019-03-18T10:45:18.025Z,101505.44
2019-03-18T10:47:48.670Z,101515.67
2019-03-18T10:50:19.408Z,101514.87
2019-03-18T10:52:50.243Z,101513.69
2019-03-18T10:55:27.021Z,101515.30
2019-03-18T10:58:18.017Z,101517.39
2019-03-18T11:00:49.918Z,101514.94
2019-03-18T11:03:20.578Z,101514.14
2019-03-18T11:05:53.229Z,101512.87
2019-03-18T11:08:33.127Z,101508.09
2019-03-18T11:11:22.082Z,101513.88
2019-03-18T11:14:15.299Z,101517.52
2019-03-18T11:16:45.936Z,101513.95
2019-03-18T11:19:16.570Z,101520.43
2019-03-18T11:21:47.356Z,101520.39
2019-03-18T11:24:17.978Z,101520.41
2019-03-18T11:26:55.193Z,101534.42
2019-03-18T11:29:24.818Z,101526.27
2019-03-18T11:31:55.427Z,101529.31
2019-03-18T11:34:26.026Z,101533.06
2019-03-18T11:36:56.764Z,101533.60
2019-03-18T11:39:27.475Z,101534.52
2019-03-18T11:41:58.126Z,101532.75
2019-03-18T11:44:34.272Z,101535.16
2019-03-18T11:47:11.932Z,101521.35
2019-03-18T11:49:42.690Z,101518.53
2019-03-18T11:52:20.366Z,101524.30
2019-03-18T11:54:51.145Z,101519.50
2019-03-18T11:57:22.767Z,101517.14
2019-03-18T12:00:00.801Z,101526.59
2019-03-18T12:02:31.496Z,101535.09
2019-03-18T12:05:02.106Z,101539.56
2019-03-18T12:07:46.231Z,101539.91
2019-03-18T12:10:18.050Z,101536.52
2019-03-18T12:12:48.749Z,101538.33
2019-03-18T12:15:37.871Z,101538.74
2019-03-18T12:18:08.623Z,101547.98
2019-03-18T12:20:51.422Z,101545.34
2019-03-18T12:23:25.118Z,101551.53
2019-03-18T12:25:55.822Z,101549.25
2019-03-18T12:28:39.508Z,101555.91
2019-03-18T12:31:10.133Z,101562.77
2019-03-18T12:33:47.398Z,101559.80
2019-03-18T12:36:18.089Z,101567.38
2019-03-18T12:38:48.651Z,101563.06
2019-03-18T12:41:19.339Z,101577.89
2019-03-18T12:43:50.009Z,101575.20
2019-03-18T12:46:20.701Z,101583.43
2019-03-18T12:48:51.325Z,101580.27
2019-03-18T12:51:28.790Z,101586.89
2019-03-18T12:54:20.678Z,101592.28
2019-03-18T12:56:51.271Z,101599.63
2019-03-18T12:59:21.866Z,101599.65
2019-03-18T13:01:52.566Z,101603.69
2019-03-18T13:04:53.921Z,101597.95
2019-03-18T13:07:24.704Z,101595.43
2019-03-18T13:09:55.331Z,101589.23
2019-03-18T13:12:25.937Z,101592.36
2019-03-18T13:14:56.440Z,101590.87
2019-03-18T13:17:27.052Z,101584.75
2019-03-18T13:20:08.185Z,101592.28
2019-03-18T13:22:38.767Z,101584.86
2019-03-18T13:25:13.288Z,101591.22
2019-03-18T13:27:50.115Z,101589.05
2019-03-18T13:30:21.017Z,101592.11
2019-03-18T13:32:51.564Z,101588.14
2019-03-18T13:35:22.243Z,101581.23
2019-03-18T13:38:09.390Z,101590.02
2019-03-18T13:40:48.265Z,101592.67
2019-03-18T13:43:18.898Z,101586.48
2019-03-18T13:45:55.226Z,101590.82
2019-03-18T13:48:21.804Z,101592.16
2019-03-18T13:50:53.463Z,101581.39
2019-03-18T13:53:24.348Z,101583.00
2019-03-18T13:55:57.361Z,101586.16
2019-03-18T13:58:28.100Z,101584.48
2019-03-18T14:00:58.807Z,101584.74
2019-03-18T14:03:29.452Z,101591.50
2019-03-18T14:06:01.383Z,101592.05
2019-03-18T14:08:50.336Z,101585.14
2019-03-18T14:11:26.480Z,101587.86
2019-03-18T14:13:57.068Z,101598.47
2019-03-18T14:16:41.595Z,101592.05
2019-03-18T14:19:15.760Z,101598.48
2019-03-18T14:21:46.488Z,101602.91
2019-03-18T14:24:17.170Z,101603.95
2019-03-18T14:26:49.802Z,101603.08
2019-03-18T14:29:25.894Z,101597.03
2019-03-18T14:32:06.963Z,101602.18
2019-03-18T14:34:37.603Z,101603.27
2019-03-18T14:37:13.785Z,101598.58
2019-03-18T14:40:14.961Z,101601.06
2019-03-18T14:42:50.356Z,101600.56
2019-03-18T14:45:23.096Z,101609.17
2019-03-18T14:47:55.804Z,101615.70
2019-03-18T14:50:27.040Z,101616.48
2019-03-18T14:52:57.723Z,101610.06
2019-03-18T14:55:28.397Z,101621.75
2019-03-18T14:58:07.095Z,101623.37
2019-03-18T15:00:37.757Z,101630.54
2019-03-18T15:03:10.468Z,101635.40
2019-03-18T15:05:41.136Z,101630.58
2019-03-18T15:08:12.794Z,101628.77
2019-03-18T15:10:51.557Z,101636.81
2019-03-18T15:13:32.135Z,101636.82
2019-03-18T15:16:03.718Z,101643.91
2019-03-18T15:18:34.364Z,101645.88
2019-03-18T15:21:14.328Z,101667.63
2019-03-18T15:23:49.518Z,101674.91
2019-03-18T15:26:41.205Z,101674.20
2019-03-18T15:29:12.000Z,101670.41
2019-03-18T15:31:42.588Z,101679.43
2019-03-18T15:34:13.728Z,101688.03
2019-03-18T15:36:44.451Z,101691.48
2019-03-18T15:39:15.187Z,101688.56
2019-03-18T15:41:45.961Z,101682.80
2019-03-18T15:44:21.476Z,101687.37
2019-03-18T15:46:52.263Z,101690.87
2019-03-18T15:49:22.850Z,101689.12
2019-03-18T15:52:11.562Z,101697.50
2019-03-18T15:54:53.396Z,101692.48
2019-03-18T15:57:14.832Z,101694.64
2019-03-18T15:59:58.124Z,101702.88
2019-03-18T16:02:28.805Z,101697.64
2019-03-18T16:04:59.467Z,101706.85
2019-03-18T16:07:33.641Z,101701.41
2019-03-18T16:10:04.767Z,101707.61
2019-03-18T16:12:36.833Z,101714.30
2019-03-18T16:15:08.184Z,101714.26
2019-03-18T16:17:41.545Z,101721.73
2019-03-18T16:20:14.640Z,101716.59
2019-03-18T16:22:51.791Z,101724.13
2019-03-18T16:25:30.800Z,101726.98
2019-03-18T16:28:12.869Z,101730.25
2019-03-18T16:30:43.643Z,101716.59
2019-03-18T16:33:14.417Z,101730.01
2019-03-18T16:36:12.125Z,101726.80
2019-03-18T16:38:49.023Z,101730.75
2019-03-18T16:41:32.955Z,101742.09
2019-03-18T16:44:03.686Z,101746.08
2019-03-18T16:46:34.493Z,101750.26
2019-03-18T16:49:05.252Z,101751.66
2019-03-18T16:51:35.852Z,101755.92
2019-03-18T16:54:24.890Z,101758.18
2019-03-18T16:57:02.157Z,101763.03
2019-03-18T17:00:03.356Z,101766.16
2019-03-18T17:02:35.313Z,101770.80
2019-03-18T17:05:06.709Z,101780.81
2019-03-18T17:07:37.756Z,101781.34
2019-03-18T17:10:19.394Z,101782.13
2019-03-18T17:12:51.165Z,101785.28
2019-03-18T17:15:21.903Z,101780.81
2019-03-18T17:17:52.643Z,101791.93
2019-03-18T17:20:23.231Z,101788.27
2019-03-18T17:22:54.092Z,101797.22
2019-03-18T17:25:25.015Z,101801.83
2019-03-18T17:27:57.742Z,101798.09
2019-03-18T17:30:28.465Z,101808.69
2019-03-18T17:33:02.348Z,101812.06
2019-03-18T17:35:53.025Z,101813.27
2019-03-18T17:38:28.295Z,101821.34
2019-03-18T17:41:04.375Z,101820.70
2019-03-18T17:43:35.112Z,101823.68
2019-03-18T17:46:05.834Z,101826.45
2019-03-18T17:48:43.240Z,101822.80
2019-03-18T17:51:13.756Z,101826.08
2019-03-18T17:53:45.380Z,101828.39
2019-03-18T17:56:29.326Z,101830.94
2019-03-18T17:58:50.597Z,101830.94
2019-03-18T18:01:22.397Z,101836.94
2019-03-18T18:03:54.593Z,101833.45
2019-03-18T18:06:38.338Z,101841.45
2019-03-18T18:09:09.248Z,101839.39
2019-03-18T18:11:44.221Z,101850.06
2019-03-18T18:14:14.883Z,101849.77
2019-03-18T18:16:45.665Z,101857.29
2019-03-18T18:19:16.241Z,101859.80
2019-03-18T18:22:14.173Z,101865.17
2019-03-18T18:24:44.968Z,101874.64
2019-03-18T18:27:19.136Z,101876.69
2019-03-18T18:30:01.066Z,101876.17
2019-03-18T18:32:32.897Z,101868.75
2019-03-18T18:35:12.843Z,101878.55
2019-03-18T18:37:44.709Z,101875.66
2019-03-18T18:40:27.376Z,101886.49
2019-03-18T18:43:00.094Z,101891.84
2019-03-18T18:45:31.184Z,101901.00
2019-03-18T18:48:10.717Z,101903.42
2019-03-18T18:50:41.644Z,101902.98
2019-03-18T18:53:25.746Z,101908.17
2019-03-18T18:55:48.545Z,101915.11
2019-03-18T18:58:29.275Z,101919.34
2019-03-18T19:01:00.065Z,101920.48
2019-03-18T19:03:39.155Z,101924.78
2019-03-18T19:06:10.104Z,101918.73
2019-03-18T19:08:42.870Z,101927.70
2019-03-18T19:11:15.692Z,101927.54
2019-03-18T19:13:51.777Z,101927.28
2019-03-18T19:16:23.703Z,101932.56
2019-03-18T19:19:00.605Z,101930.61
2019-03-18T19:21:31.373Z,101930.97
2019-03-18T19:24:02.024Z,101937.95
2019-03-18T19:26:47.358Z,101945.83
2019-03-18T19:29:18.041Z,101953.70
2019-03-18T19:31:58.487Z,101954.95
2019-03-18T19:34:31.282Z,101960.20
2019-03-18T19:37:02.021Z,101959.81
2019-03-18T19:39:33.032Z,101960.59
2019-03-18T19:42:07.433Z,101954.78
2019-03-18T19:44:38.251Z,101963.00
2019-03-18T19:47:10.782Z,101963.70
2019-03-18T19:49:41.564Z,101968.58
2019-03-18T19:52:13.460Z,101978.37
2019-03-18T19:54:44.301Z,101977.48
2019-03-18T19:57:19.136Z,101979.26
2019-03-18T19:59:49.845Z,101987.24
2019-03-18T20:02:26.472Z,101988.59
2019-03-18T20:04:57.240Z,101989.42
2019-03-18T20:07:36.817Z,101981.70
2019-03-18T20:10:11.385Z,101993.17
2019-03-18T20:12:44.106Z,101993.33
2019-03-18T20:15:15.122Z,101995.08
2019-03-18T20:17:48.033Z,101997.66
2019-03-18T20:20:20.088Z,102005.20
2019-03-18T20:22:51.881Z,102011.92
2019-03-18T20:25:22.760Z,102008.00
2019-03-18T20:27:58.783Z,102015.16
2019-03-18T20:30:29.777Z,102019.13
2019-03-18T20:33:00.602Z,102031.94
2019-03-18T20:35:32.546Z,102030.05
2019-03-18T20:38:03.537Z,102029.86
2019-03-18T20:40:34.460Z,102029.70
2019-03-18T20:43:05.223Z,102042.66
2019-03-18T20:45:35.873Z,102042.93
2019-03-18T20:48:07.607Z,102049.45
2019-03-18T20:50:38.342Z,102056.25
2019-03-18T20:53:18.483Z,102058.21
2019-03-18T20:55:50.181Z,102057.45
2019-03-18T20:58:20.885Z,102056.63
2019-03-18T21:00:59.832Z,102051.85
2019-03-18T21:03:33.869Z,102060.09
2019-03-18T21:06:04.591Z,102063.73
2019-03-18T21:08:35.638Z,102071.66
2019-03-18T21:11:07.238Z,102073.52
2019-03-18T21:13:44.303Z,102080.29
2019-03-18T21:16:16.386Z,102090.89
2019-03-18T21:18:57.403Z,102092.13
2019-03-18T21:21:28.189Z,102087.91
2019-03-18T21:24:22.719Z,102096.05
2019-03-18T21:26:52.514Z,102098.17
2019-03-18T21:29:27.679Z,102100.63
2019-03-18T21:32:02.577Z,102107.20
2019-03-18T21:34:33.443Z,102108.87
2019-03-18T21:37:05.331Z,102107.62
2019-03-18T21:39:42.089Z,102111.63
2019-03-18T21:42:12.814Z,102114.78
2019-03-18T21:44:55.271Z,102120.98
2019-03-18T21:47:29.864Z,102122.47
2019-03-18T21:50:07.634Z,102127.89
2019-03-18T21:52:40.449Z,102135.22
2019-03-18T21:55:12.004Z,102139.75
2019-03-18T21:57:42.956Z,102136.30
2019-03-18T22:00:23.757Z,102144.30
2019-03-18T22:02:58.509Z,102139.54
2019-03-18T22:05:29.094Z,102135.94
2019-03-18T22:08:00.728Z,102135.59
2019-03-18T22:10:31.497Z,102145.81
2019-03-18T22:13:13.121Z,102144.92
2019-03-18T22:15:53.889Z,102143.13
2019-03-18T22:18:24.543Z,102135.96
2019-03-18T22:21:03.523Z,102132.88
2019-03-18T22:23:35.410Z,102132.86
2019-03-18T22:26:07.244Z,102141.05
2019-03-18T22:28:49.924Z,102148.09
2019-03-18T22:31:25.813Z,102155.36
2019-03-18T22:33:56.504Z,102159.30
2019-03-18T22:36:34.679Z,102162.41
2019-03-18T22:39:08.490Z,102162.55
2019-03-18T22:42:24.975Z,102155.53
2019-03-18T22:44:55.988Z,102161.89
2019-03-18T22:47:27.934Z,102165.33
2019-03-18T22:50:05.991Z,102173.90
2019-03-18T22:53:03.405Z,102171.66
2019-03-18T22:55:38.892Z,102172.13
2019-03-18T22:58:09.675Z,102166.34
2019-03-18T23:00:49.146Z,102169.49
2019-03-18T23:03:22.893Z,102170.82
2019-03-18T23:05:56.668Z,102173.98
2019-03-18T23:08:34.995Z,102182.86
2019-03-18T23:11:07.543Z,102178.48
2019-03-18T23:13:49.735Z,102188.61
2019-03-18T23:16:23.899Z,102186.43
2019-03-18T23:18:55.173Z,102182.86
2019-03-18T23:21:25.765Z,102186.89
2019-03-18T23:23:56.708Z,102186.42
2019-03-18T23:26:37.801Z,102186.53
2019-03-18T23:29:15.405Z,102194.08
2019-03-18T23:31:46.695Z,102197.66
2019-03-18T23:34:19.377Z,102203.51
2019-03-18T23:36:50.847Z,102203.53
2019-03-18T23:39:23.143Z,102200.84
2019-03-18T23:41:54.543Z,102191.05
2019-03-18T23:44:37.501Z,102192.39
2019-03-18T23:47:10.913Z,102203.97
2019-03-18T23:49:41.955Z,102201.34
2019-03-18T23:52:13.323Z,102193.79
2019-03-18T23:54:58.294Z,102198.63
2019-03-18T23:57:29.480Z,102201.75
